Time;durP1;ratioP1;P1;durP2;ratioP2;P2;SDS_P1;SDS_P2;PMS_P1;PMS_P2;Temp;Humidity;BMP_temperature;BMP_pressure;BME280_temperature;BME280_humidity;BME280_pressure;Samples;Min_cycle;Max_cycle;Signal;HPM_P1;HPM_P2
2022/10/01 00:00:13;;;;;;;;;6.00;6.00;;;;;;;;5060138;28;45372;-73
2022/10/01 00:02:38;;;;;;;;;7.33;6.00;;;;;;;;5048390;28;45294;-73
2022/10/01 00:05:05;;;;;;;;;7.00;4.00;;;;;;;;5046915;28;45331;-73
2022/10/01 00:07:36;;;;;;;;;3.33;3.33;;;;;;;;5047202;28;46735;-73
2022/10/01 00:10:01;;;;;;;;;2.33;2.33;;;;;;;;5048475;28;45477;-73
2022/10/01 00:12:26;;;;;;;;;7.00;5.00;;;;;;;;5050505;28;45388;-73
2022/10/01 00:14:51;;;;;;;;;2.67;2.67;;;;;;;;5048971;28;45425;-72
2022/10/01 00:17:16;;;;;;;;;2.00;2.00;;;;;;;;5058373;28;45571;-72
2022/10/01 00:19:42;;;;;;;;;2.00;2.00;;;;;;;;5057576;28;45376;-72
2022/10/01 00:22:07;;;;;;;;;2.67;2.67;;;;;;;;5057012;28;45312;-73
2022/10/01 00:24:32;;;;;;;;;4.00;4.00;;;;;;;;5070335;28;45432;-73
2022/10/01 00:26:57;;;;;;;;;3.00;2.00;;;;;;;;5053054;28;45963;-73
2022/10/01 00:29:23;;;;;;;;;2.00;2.00;;;;;;;;5050137;28;45255;-74
2022/10/01 00:31:48;;;;;;;;;4.00;3.00;;;;;;;;5054110;28;45319;-73
2022/10/01 00:34:14;;;;;;;;;2.00;2.00;;;;;;;;5055188;28;45426;-73
2022/10/01 00:36:40;;;;;;;;;5.67;3.67;;;;;;;;5056010;28;45303;-73
2022/10/01 00:39:05;;;;;;;;;3.00;2.00;;;;;;;;5056089;28;45466;-75
2022/10/01 00:41:32;;;;;;;;;3.67;3.67;;;;;;;;5056419;28;45446;-75
2022/10/01 00:44:16;;;;;;;;;3.67;3.00;;;;;;;;5067149;28;45581;-74
2022/10/01 00:46:42;;;;;;;;;2.00;2.00;;;;;;;;5060732;27;46057;-74
2022/10/01 00:49:10;;;;;;;;;2.67;2.67;;;;;;;;5053958;28;45291;-74
2022/10/01 00:51:38;;;;;;;;;2.67;2.67;;;;;;;;5056431;28;45217;-74
2022/10/01 00:54:12;;;;;;;;;2.33;2.33;;;;;;;;5055632;28;45309;-73
2022/10/01 00:56:38;;;;;;;;;4.67;2.67;;;;;;;;5048712;28;46685;-74
2022/10/01 00:59:03;;;;;;;;;2.33;2.33;;;;;;;;5057549;28;45241;-76
2022/10/01 01:01:29;;;;;;;;;3.00;3.00;;;;;;;;5050282;28;45326;-77
2022/10/01 01:03:55;;;;;;;;;2.00;2.00;;;;;;;;5056336;28;45408;-76
2022/10/01 01:06:20;;;;;;;;;3.00;3.00;;;;;;;;5055088;28;47790;-76
2022/10/01 01:08:52;;;;;;;;;0.00;0.00;;;;;;;;5059589;28;44779;-76
2022/10/01 01:11:32;;;;;;;;;1.00;1.00;;;;;;;;5055084;28;45544;-76
2022/10/01 01:14:04;;;;;;;;;1.33;1.33;;;;;;;;5057372;28;45420;-75
2022/10/01 01:16:34;;;;;;;;;3.00;3.00;;;;;;;;5056330;28;45253;-75
2022/10/01 01:19:20;;;;;;;;;3.00;3.00;;;;;;;;5051164;28;45300;-75
2022/10/01 01:21:50;;;;;;;;;3.00;3.00;;;;;;;;5048962;27;45190;-74
2022/10/01 01:24:19;;;;;;;;;4.00;2.00;;;;;;;;5050530;28;45443;-75
2022/10/01 01:26:53;;;;;;;;;2.67;2.67;;;;;;;;5047358;28;45599;-75
2022/10/01 01:29:33;;;;;;;;;3.33;2.00;;;;;;;;5045955;28;45259;-75
2022/10/01 01:32:01;;;;;;;;;4.33;2.33;;;;;;;;5049964;28;45456;-75
2022/10/01 01:34:28;;;;;;;;;0.67;0.67;;;;;;;;5058573;28;45387;-75
2022/10/01 01:36:57;;;;;;;;;2.00;2.00;;;;;;;;5048195;28;45450;-74
2022/10/01 01:39:25;;;;;;;;;1.33;1.33;;;;;;;;5052602;28;45342;-73
2022/10/01 01:41:54;;;;;;;;;3.00;0.33;;;;;;;;5050321;28;45359;-73
2022/10/01 01:44:22;;;;;;;;;1.00;1.00;;;;;;;;5055023;28;45583;-74
2022/10/01 01:46:49;;;;;;;;;1.67;1.00;;;;;;;;5052701;28;45315;-73
2022/10/01 01:49:19;;;;;;;;;1.00;1.00;;;;;;;;5054446;28;45276;-73
2022/10/01 01:51:47;;;;;;;;;1.00;1.00;;;;;;;;5048461;28;45263;-73
2022/10/01 01:54:12;;;;;;;;;1.00;1.00;;;;;;;;5059494;28;45631;-73
2022/10/01 01:56:37;;;;;;;;;1.00;1.00;;;;;;;;5053522;28;45386;-73
2022/10/01 01:59:03;;;;;;;;;0.67;0.67;;;;;;;;5056022;28;45425;-73
2022/10/01 02:01:33;;;;;;;;;1.00;1.00;;;;;;;;5056196;28;45236;-73
2022/10/01 02:03:58;;;;;;;;;0.67;0.67;;;;;;;;5056253;28;45406;-73
2022/10/01 02:06:32;;;;;;;;;1.00;1.00;;;;;;;;5051318;28;45477;-73
2022/10/01 02:09:13;;;;;;;;;1.00;1.00;;;;;;;;5067484;28;45311;-73
2022/10/01 02:11:44;;;;;;;;;0.67;0.67;;;;;;;;5051922;28;45542;-73
2022/10/01 02:14:29;;;;;;;;;0.33;0.33;;;;;;;;5058424;28;45165;-73
2022/10/01 02:16:55;;;;;;;;;2.67;1.00;;;;;;;;5055513;27;45342;-73
2022/10/01 02:19:20;;;;;;;;;0.00;0.00;;;;;;;;5059277;28;45265;-73
2022/10/01 02:21:45;;;;;;;;;1.00;1.00;;;;;;;;5057394;28;45335;-73
2022/10/01 02:24:21;;;;;;;;;0.00;0.00;;;;;;;;5040991;28;45516;-73
2022/10/01 02:26:47;;;;;;;;;1.00;1.00;;;;;;;;5051577;28;45498;-73
2022/10/01 02:29:15;;;;;;;;;2.67;1.00;;;;;;;;5058606;28;45437;-73
2022/10/01 02:31:41;;;;;;;;;0.00;0.00;;;;;;;;5046862;28;44765;-73
2022/10/01 02:34:07;;;;;;;;;1.00;1.00;;;;;;;;5054597;28;45342;-73
2022/10/01 02:36:35;;;;;;;;;0.67;0.67;;;;;;;;5039219;28;46924;-72
2022/10/01 02:39:01;;;;;;;;;1.00;0.00;;;;;;;;5051430;28;45269;-73
2022/10/01 02:41:32;;;;;;;;;2.00;0.00;;;;;;;;5051476;28;45248;-73
2022/10/01 02:44:30;;;;;;;;;0.67;0.67;;;;;;;;5052877;28;45166;-73
2022/10/01 02:46:55;;;;;;;;;1.67;0.00;;;;;;;;5031417;28;45305;-73
2022/10/01 02:49:20;;;;;;;;;0.00;0.00;;;;;;;;5055867;28;45374;-73
2022/10/01 02:51:48;;;;;;;;;0.00;0.00;;;;;;;;5052949;28;45145;-73
2022/10/01 02:54:17;;;;;;;;;0.00;0.00;;;;;;;;5045570;28;45258;-73
2022/10/01 02:59:27;;;;;;;;;0.67;0.00;;;;;;;;5050006;28;45240;-73
2022/10/01 03:01:52;;;;;;;;;0.00;0.00;;;;;;;;5052453;28;45244;-73
2022/10/01 03:04:18;;;;;;;;;0.00;0.00;;;;;;;;5051008;28;45374;-70
2022/10/01 03:06:43;;;;;;;;;0.00;0.00;;;;;;;;5049963;28;45349;-72
2022/10/01 03:09:09;;;;;;;;;0.00;0.00;;;;;;;;5053818;28;45360;-73
2022/10/01 03:11:34;;;;;;;;;0.00;0.00;;;;;;;;5051809;28;45203;-73
2022/10/01 03:14:00;;;;;;;;;0.00;0.00;;;;;;;;5054691;28;45483;-73
2022/10/01 03:16:25;;;;;;;;;2.00;0.67;;;;;;;;5053128;28;46513;-73
2022/10/01 03:18:50;;;;;;;;;0.00;0.00;;;;;;;;5050769;28;45254;-73
2022/10/01 03:21:15;;;;;;;;;0.00;0.00;;;;;;;;5058445;28;45522;-73
2022/10/01 03:23:40;;;;;;;;;0.00;0.00;;;;;;;;5060972;28;45451;-73
2022/10/01 03:26:06;;;;;;;;;0.00;0.00;;;;;;;;5057250;28;45351;-73
2022/10/01 03:28:31;;;;;;;;;0.00;0.00;;;;;;;;5056148;28;45390;-73
2022/10/01 03:31:06;;;;;;;;;0.00;0.00;;;;;;;;5061499;28;45268;-73
2022/10/01 03:33:31;;;;;;;;;0.00;0.00;;;;;;;;5058216;28;45680;-73
2022/10/01 03:35:57;;;;;;;;;0.00;0.00;;;;;;;;5055447;28;45628;-73
2022/10/01 03:38:22;;;;;;;;;0.00;0.00;;;;;;;;5056145;28;45378;-73
2022/10/01 03:40:47;;;;;;;;;0.00;0.00;;;;;;;;5058746;28;45204;-76
2022/10/01 03:43:12;;;;;;;;;0.00;0.00;;;;;;;;5053561;28;45406;-76
2022/10/01 03:45:38;;;;;;;;;0.00;0.00;;;;;;;;5059966;28;45449;-75
2022/10/01 03:48:03;;;;;;;;;0.00;0.00;;;;;;;;5053730;28;45531;-75
2022/10/01 03:50:28;;;;;;;;;0.00;0.00;;;;;;;;5048827;28;45176;-75
2022/10/01 03:52:53;;;;;;;;;0.00;0.00;;;;;;;;5049600;28;45488;-75
2022/10/01 03:55:19;;;;;;;;;0.33;0.00;;;;;;;;5050310;28;45385;-76
2022/10/01 03:57:44;;;;;;;;;0.00;0.00;;;;;;;;5055774;28;45332;-75
2022/10/01 04:00:09;;;;;;;;;0.00;0.00;;;;;;;;5051823;28;45487;-75
2022/10/01 04:02:34;;;;;;;;;0.00;0.00;;;;;;;;5089134;27;46938;-74
2022/10/01 04:05:00;;;;;;;;;0.00;0.00;;;;;;;;5051936;28;45480;-74
2022/10/01 04:07:25;;;;;;;;;0.00;0.00;;;;;;;;5057983;28;44746;-74
2022/10/01 04:09:50;;;;;;;;;0.00;0.00;;;;;;;;5055461;28;45340;-74
2022/10/01 04:12:15;;;;;;;;;0.00;0.00;;;;;;;;5058346;28;45521;-74
2022/10/01 04:14:41;;;;;;;;;0.00;0.00;;;;;;;;5056666;28;45230;-73
2022/10/01 04:17:06;;;;;;;;;0.00;0.00;;;;;;;;5057537;28;45516;-74
2022/10/01 04:19:31;;;;;;;;;0.00;0.00;;;;;;;;5054463;28;45291;-74
2022/10/01 04:21:56;;;;;;;;;0.00;0.00;;;;;;;;5057487;28;45406;-75
2022/10/01 04:24:21;;;;;;;;;0.00;0.00;;;;;;;;5053931;28;45285;-75
2022/10/01 04:26:49;;;;;;;;;0.00;0.00;;;;;;;;5049245;28;44829;-74
2022/10/01 04:29:14;;;;;;;;;0.00;0.00;;;;;;;;5044017;28;45546;-74
2022/10/01 04:31:39;;;;;;;;;0.00;0.00;;;;;;;;5053580;28;45272;-73
2022/10/01 04:34:04;;;;;;;;;0.00;0.00;;;;;;;;5055580;28;45565;-73
2022/10/01 04:36:30;;;;;;;;;0.00;0.00;;;;;;;;5050624;28;45324;-73
2022/10/01 04:38:55;;;;;;;;;0.00;0.00;;;;;;;;5052520;28;45330;-73
2022/10/01 04:41:21;;;;;;;;;0.00;0.00;;;;;;;;5053175;28;45397;-73
2022/10/01 04:43:46;;;;;;;;;0.00;0.00;;;;;;;;5052981;28;45370;-73
2022/10/01 04:46:11;;;;;;;;;0.00;0.00;;;;;;;;5054961;28;45273;-73
2022/10/01 04:48:36;;;;;;;;;0.00;0.00;;;;;;;;5055230;28;45237;-73
2022/10/01 04:51:02;;;;;;;;;0.00;0.00;;;;;;;;5057443;28;45336;-73
2022/10/01 04:53:27;;;;;;;;;0.00;0.00;;;;;;;;5054968;28;45142;-73
2022/10/01 04:55:53;;;;;;;;;0.00;0.00;;;;;;;;5042423;28;45288;-73
2022/10/01 04:58:18;;;;;;;;;0.00;0.00;;;;;;;;5051273;28;45238;-73
2022/10/01 05:00:43;;;;;;;;;0.00;0.00;;;;;;;;5052293;28;45457;-72
2022/10/01 05:03:08;;;;;;;;;1.00;0.00;;;;;;;;5054514;28;45465;-73
2022/10/01 05:05:34;;;;;;;;;0.00;0.00;;;;;;;;5055086;28;45330;-72
2022/10/01 05:07:59;;;;;;;;;0.00;0.00;;;;;;;;5048753;28;45188;-73
2022/10/01 05:10:25;;;;;;;;;0.00;0.00;;;;;;;;5059915;28;45452;-73
2022/10/01 05:12:53;;;;;;;;;0.00;0.00;;;;;;;;5054415;28;45597;-73
2022/10/01 05:15:18;;;;;;;;;0.00;0.00;;;;;;;;5043943;28;45248;-73
2022/10/01 05:17:43;;;;;;;;;0.00;0.00;;;;;;;;5053634;28;45254;-72
2022/10/01 05:20:14;;;;;;;;;0.00;0.00;;;;;;;;5048887;28;45281;-73
2022/10/01 05:22:40;;;;;;;;;0.00;0.00;;;;;;;;5051580;28;46145;-72
2022/10/01 05:25:05;;;;;;;;;0.00;0.00;;;;;;;;5052258;28;45719;-73
2022/10/01 05:27:35;;;;;;;;;0.00;0.00;;;;;;;;5047891;28;45269;-72
2022/10/01 05:30:00;;;;;;;;;0.00;0.00;;;;;;;;5054087;27;45622;-73
2022/10/01 05:32:25;;;;;;;;;0.00;0.00;;;;;;;;5054089;28;45916;-73
2022/10/01 05:34:51;;;;;;;;;0.00;0.00;;;;;;;;5059442;28;45300;-72
2022/10/01 05:37:18;;;;;;;;;0.67;0.00;;;;;;;;5054408;28;45546;-73
2022/10/01 05:39:43;;;;;;;;;1.00;0.00;;;;;;;;5051405;28;45466;-72
2022/10/01 05:42:08;;;;;;;;;0.00;0.00;;;;;;;;5051966;28;46417;-72
2022/10/01 05:44:36;;;;;;;;;0.00;0.00;;;;;;;;5053695;28;45233;-73
2022/10/01 05:47:02;;;;;;;;;0.00;0.00;;;;;;;;5043733;28;45462;-72
2022/10/01 05:49:27;;;;;;;;;1.67;0.00;;;;;;;;5055932;28;45376;-72
2022/10/01 05:51:52;;;;;;;;;0.00;0.00;;;;;;;;5048353;28;45406;-72
2022/10/01 05:54:18;;;;;;;;;0.00;0.00;;;;;;;;5053366;28;45350;-72
2022/10/01 05:56:43;;;;;;;;;0.00;0.00;;;;;;;;5048869;28;45218;-73
2022/10/01 05:59:09;;;;;;;;;0.67;0.00;;;;;;;;5056787;28;45490;-72
2022/10/01 06:01:34;;;;;;;;;11.67;10.00;;;;;;;;5054969;28;45465;-73
2022/10/01 06:04:00;;;;;;;;;7.67;5.67;;;;;;;;5058651;28;45190;-73
2022/10/01 06:06:25;;;;;;;;;0.00;0.00;;;;;;;;5056421;28;45641;-72
2022/10/01 06:08:51;;;;;;;;;0.00;0.00;;;;;;;;5055042;28;45566;-73
2022/10/01 06:11:18;;;;;;;;;0.33;0.00;;;;;;;;5052476;28;45235;-72
2022/10/01 06:13:44;;;;;;;;;0.00;0.00;;;;;;;;5056798;28;45541;-72
2022/10/01 06:16:12;;;;;;;;;1.00;0.00;;;;;;;;5048410;28;44758;-72
2022/10/01 06:18:38;;;;;;;;;0.00;0.00;;;;;;;;5054319;28;45564;-72
2022/10/01 06:21:03;;;;;;;;;0.00;0.00;;;;;;;;5049933;28;45349;-72
2022/10/01 06:23:28;;;;;;;;;0.00;0.00;;;;;;;;5054991;28;45353;-72
2022/10/01 06:25:54;;;;;;;;;1.33;0.00;;;;;;;;5043261;28;45219;-72
2022/10/01 06:28:19;;;;;;;;;1.67;0.00;;;;;;;;5053599;28;45354;-72
2022/10/01 06:30:44;;;;;;;;;1.67;1.00;;;;;;;;5051186;28;45966;-72
2022/10/01 06:33:11;;;;;;;;;0.00;0.00;;;;;;;;5056507;28;45441;-73
2022/10/01 06:35:41;;;;;;;;;0.00;0.00;;;;;;;;5055541;28;45162;-72
2022/10/01 06:38:07;;;;;;;;;0.00;0.00;;;;;;;;5051738;28;45356;-72
2022/10/01 06:40:32;;;;;;;;;1.00;0.00;;;;;;;;5052163;28;46121;-72
2022/10/01 06:42:57;;;;;;;;;3.00;0.33;;;;;;;;5046556;28;45409;-72
2022/10/01 06:45:25;;;;;;;;;3.00;1.33;;;;;;;;5047167;28;45941;-72
2022/10/01 06:47:58;;;;;;;;;3.33;2.67;;;;;;;;5051109;28;45422;-72
2022/10/01 06:50:24;;;;;;;;;1.00;0.00;;;;;;;;5048164;28;45311;-72
2022/10/01 06:52:49;;;;;;;;;2.00;2.00;;;;;;;;5049623;28;45381;-72
2022/10/01 06:55:16;;;;;;;;;5.00;1.67;;;;;;;;5050282;28;45445;-72
2022/10/01 06:57:41;;;;;;;;;0.00;0.00;;;;;;;;5054939;28;45427;-72
2022/10/01 07:00:06;;;;;;;;;0.00;0.00;;;;;;;;5048821;28;45361;-72
2022/10/01 07:02:32;;;;;;;;;3.67;1.00;;;;;;;;5052115;28;45381;-72
2022/10/01 07:04:57;;;;;;;;;3.33;1.00;;;;;;;;5053541;28;45316;-72
2022/10/01 07:07:23;;;;;;;;;5.00;0.00;;;;;;;;5058118;28;45476;-72
2022/10/01 07:09:49;;;;;;;;;1.00;0.33;;;;;;;;5058990;28;46199;-72
2022/10/01 07:12:14;;;;;;;;;4.67;1.67;;;;;;;;5059046;28;45374;-71
2022/10/01 07:14:39;;;;;;;;;3.00;1.00;;;;;;;;5067456;28;45365;-71
2022/10/01 07:17:04;;;;;;;;;1.67;1.33;;;;;;;;5048497;28;45399;-72
2022/10/01 07:19:30;;;;;;;;;1.00;1.00;;;;;;;;5043673;28;46089;-71
2022/10/01 07:21:55;;;;;;;;;2.00;1.00;;;;;;;;5047302;28;45400;-71
2022/10/01 07:24:21;;;;;;;;;0.00;0.00;;;;;;;;5052677;28;45214;-71
2022/10/01 07:26:49;;;;;;;;;5.00;1.00;;;;;;;;5049266;28;45328;-71
2022/10/01 07:29:15;;;;;;;;;3.00;1.33;;;;;;;;5053288;28;46459;-71
2022/10/01 07:31:40;;;;;;;;;1.00;1.00;;;;;;;;5049899;28;45263;-71
2022/10/01 07:34:05;;;;;;;;;3.00;1.33;;;;;;;;5057894;28;45203;-71
2022/10/01 07:36:30;;;;;;;;;2.00;2.00;;;;;;;;5053321;28;45577;-72
2022/10/01 07:38:55;;;;;;;;;2.00;1.00;;;;;;;;5056544;28;45325;-71
2022/10/01 07:41:21;;;;;;;;;7.67;3.00;;;;;;;;5057027;28;45457;-71
2022/10/01 07:43:46;;;;;;;;;3.00;2.00;;;;;;;;5054682;28;45462;-72
2022/10/01 07:46:11;;;;;;;;;2.00;2.00;;;;;;;;5057609;28;45763;-72
2022/10/01 07:48:37;;;;;;;;;2.00;1.00;;;;;;;;5056602;28;45291;-72
2022/10/01 07:51:02;;;;;;;;;2.00;1.00;;;;;;;;5044281;28;45397;-72
2022/10/01 07:53:27;;;;;;;;;3.67;2.00;;;;;;;;5049548;28;45304;-72
2022/10/01 07:55:53;;;;;;;;;6.00;1.00;;;;;;;;5047673;28;45474;-72
2022/10/01 07:58:22;;;;;;;;;0.00;0.00;;;;;;;;5049476;28;48306;-72
2022/10/01 08:00:47;;;;;;;;;1.00;1.00;;;;;;;;5051305;28;45406;-72
2022/10/01 08:03:13;;;;;;;;;1.33;1.00;;;;;;;;5054495;28;45483;-72
2022/10/01 08:05:39;;;;;;;;;1.67;1.00;;;;;;;;5060780;27;45362;-73
2022/10/01 08:08:07;;;;;;;;;2.33;0.67;;;;;;;;5054595;28;45636;-72
2022/10/01 08:10:36;;;;;;;;;1.67;1.00;;;;;;;;5058206;28;45278;-72
2022/10/01 08:13:07;;;;;;;;;5.33;1.00;;;;;;;;5060729;28;45527;-72
2022/10/01 08:15:32;;;;;;;;;1.00;1.00;;;;;;;;5060698;28;45597;-73
2022/10/01 08:18:02;;;;;;;;;2.67;1.00;;;;;;;;5060749;28;46213;-70
2022/10/01 08:20:27;;;;;;;;;3.67;1.00;;;;;;;;5061383;28;45434;-70
2022/10/01 08:22:52;;;;;;;;;4.00;2.00;;;;;;;;5061289;28;45355;-70
2022/10/01 08:25:18;;;;;;;;;1.00;1.00;;;;;;;;5061419;28;45352;-71
2022/10/01 08:27:43;;;;;;;;;5.00;2.00;;;;;;;;5060858;28;45414;-72
2022/10/01 08:30:08;;;;;;;;;3.00;1.00;;;;;;;;5061132;28;45295;-70
2022/10/01 08:32:33;;;;;;;;;1.33;1.00;;;;;;;;5060811;28;45300;-69
2022/10/01 08:35:00;;;;;;;;;2.33;1.00;;;;;;;;5060894;28;45479;-69
2022/10/01 08:37:26;;;;;;;;;7.67;1.00;;;;;;;;5060397;28;45315;-70
2022/10/01 08:39:51;;;;;;;;;1.67;1.67;;;;;;;;5060944;28;45289;-69
2022/10/01 08:42:23;;;;;;;;;6.00;2.00;;;;;;;;5059267;28;45471;-69
2022/10/01 08:44:50;;;;;;;;;3.67;2.00;;;;;;;;5061002;28;45271;-69
2022/10/01 08:47:20;;;;;;;;;3.67;2.33;;;;;;;;5060454;28;45489;-68
2022/10/01 08:50:15;;;;;;;;;2.67;1.33;;;;;;;;5060832;28;45370;-68
2022/10/01 08:52:46;;;;;;;;;3.00;2.00;;;;;;;;5051629;28;45327;-68
2022/10/01 08:55:15;;;;;;;;;4.67;1.33;;;;;;;;5060604;28;45264;-68
2022/10/01 08:57:45;;;;;;;;;2.33;2.33;;;;;;;;5060402;28;45339;-68
2022/10/01 09:00:13;;;;;;;;;3.00;3.00;;;;;;;;5059040;28;45390;-68
2022/10/01 09:02:39;;;;;;;;;2.67;1.67;;;;;;;;5060661;28;45493;-68
2022/10/01 09:05:04;;;;;;;;;1.33;1.33;;;;;;;;5060286;28;45415;-70
2022/10/01 09:07:35;;;;;;;;;8.00;5.00;;;;;;;;5060635;28;45311;-70
2022/10/01 09:10:09;;;;;;;;;5.00;4.00;;;;;;;;5060273;28;45235;-69
2022/10/01 09:12:53;;;;;;;;;2.67;1.33;;;;;;;;5060670;28;45281;-69
2022/10/01 09:15:35;;;;;;;;;1.00;1.00;;;;;;;;5060307;28;45663;-70
2022/10/01 09:18:00;;;;;;;;;4.00;1.33;;;;;;;;5059309;28;46578;-70
2022/10/01 09:20:27;;;;;;;;;1.00;1.00;;;;;;;;5060273;28;45455;-70
2022/10/01 09:22:55;;;;;;;;;5.33;2.00;;;;;;;;5060519;28;45375;-69
2022/10/01 09:25:22;;;;;;;;;3.67;2.00;;;;;;;;5060296;28;45313;-70
2022/10/01 09:27:48;;;;;;;;;0.67;0.00;;;;;;;;5060135;28;46290;-69
2022/10/01 09:30:16;;;;;;;;;10.33;2.67;;;;;;;;5060173;28;45720;-69
2022/10/01 09:32:44;;;;;;;;;5.33;2.00;;;;;;;;5058592;28;45285;-69
2022/10/01 09:35:23;;;;;;;;;5.00;2.00;;;;;;;;5059936;28;45381;-69
2022/10/01 09:38:17;;;;;;;;;1.00;1.00;;;;;;;;5060043;28;45576;-70
2022/10/01 09:40:48;;;;;;;;;5.00;2.00;;;;;;;;5050261;28;44883;-70
2022/10/01 09:43:17;;;;;;;;;3.33;2.33;;;;;;;;5059254;28;45157;-69
2022/10/01 09:45:43;;;;;;;;;2.67;2.67;;;;;;;;5056796;28;45600;-69
2022/10/01 09:48:30;;;;;;;;;3.00;2.33;;;;;;;;5058431;28;45380;-69
2022/10/01 09:51:16;;;;;;;;;3.67;2.67;;;;;;;;5058237;28;45403;-69
2022/10/01 09:53:50;;;;;;;;;2.67;2.00;;;;;;;;5027829;28;45369;-69
2022/10/01 09:56:20;;;;;;;;;5.00;2.00;;;;;;;;5057480;28;45479;-71
2022/10/01 09:58:49;;;;;;;;;8.00;2.00;;;;;;;;5057554;28;45224;-71
2022/10/01 10:01:22;;;;;;;;;2.67;2.00;;;;;;;;5057103;28;45310;-71
2022/10/01 10:03:54;;;;;;;;;4.00;3.00;;;;;;;;5057031;28;45422;-70
2022/10/01 10:06:27;;;;;;;;;3.67;1.00;;;;;;;;5057244;28;45228;-71
2022/10/01 10:08:53;;;;;;;;;3.33;1.33;;;;;;;;5055982;28;45916;-71
2022/10/01 10:11:20;;;;;;;;;6.67;2.33;;;;;;;;5057619;28;45258;-71
2022/10/01 10:13:49;;;;;;;;;3.33;3.00;;;;;;;;5057970;28;45336;-70
2022/10/01 10:16:19;;;;;;;;;3.00;3.00;;;;;;;;5057701;28;44800;-70
2022/10/01 10:18:47;;;;;;;;;1.00;1.00;;;;;;;;5057662;28;45226;-71
2022/10/01 10:21:18;;;;;;;;;3.67;2.67;;;;;;;;5057639;28;45165;-71
2022/10/01 10:23:53;;;;;;;;;7.00;3.67;;;;;;;;5057908;28;45315;-71
2022/10/01 10:26:33;;;;;;;;;7.33;2.00;;;;;;;;5057306;28;45481;-71
2022/10/01 10:29:00;;;;;;;;;5.00;2.00;;;;;;;;5057010;28;45469;-70
2022/10/01 10:31:26;;;;;;;;;2.67;2.33;;;;;;;;5057182;28;45306;-70
2022/10/01 10:33:54;;;;;;;;;3.67;1.33;;;;;;;;5057815;28;45391;-70
2022/10/01 10:36:27;;;;;;;;;4.33;1.33;;;;;;;;5057530;28;44716;-70
2022/10/01 10:38:53;;;;;;;;;4.00;2.00;;;;;;;;5057496;28;45418;-70
2022/10/01 10:41:24;;;;;;;;;4.00;1.33;;;;;;;;5016971;28;1159451;-70
2022/10/01 10:43:50;;;;;;;;;3.00;1.67;;;;;;;;5090505;27;45291;-70
2022/10/01 10:46:36;;;;;;;;;4.67;2.33;;;;;;;;5058784;28;45287;-69
2022/10/01 10:49:04;;;;;;;;;5.67;3.00;;;;;;;;5058818;28;46917;-70
2022/10/01 10:51:42;;;;;;;;;7.67;2.67;;;;;;;;5059051;28;45299;-70
2022/10/01 10:54:26;;;;;;;;;3.00;2.00;;;;;;;;5059036;28;45264;-70
2022/10/01 10:56:59;;;;;;;;;3.33;3.33;;;;;;;;5058649;28;45367;-70
2022/10/01 10:59:25;;;;;;;;;2.67;2.67;;;;;;;;5045524;28;45741;-71
2022/10/01 11:01:51;;;;;;;;;4.33;2.33;;;;;;;;5058274;28;45224;-70
2022/10/01 11:04:26;;;;;;;;;8.67;3.67;;;;;;;;5058749;28;45240;-71
2022/10/01 11:06:57;;;;;;;;;5.33;4.00;;;;;;;;5058520;28;45402;-70
2022/10/01 11:09:25;;;;;;;;;4.67;2.00;;;;;;;;5058500;28;46393;-70
2022/10/01 11:12:04;;;;;;;;;5.33;2.67;;;;;;;;5058406;28;45439;-71
2022/10/01 11:15:06;;;;;;;;;2.67;2.67;;;;;;;;5090133;27;45350;-71
2022/10/01 11:17:48;;;;;;;;;2.00;2.00;;;;;;;;5035333;28;45534;-71
2022/10/01 11:20:35;;;;;;;;;5.67;2.00;;;;;;;;5055661;28;45328;-71
2022/10/01 11:23:16;;;;;;;;;2.67;2.00;;;;;;;;5058335;28;45339;-71
2022/10/01 11:25:42;;;;;;;;;4.33;2.00;;;;;;;;5058558;28;45429;-70
2022/10/01 11:28:26;;;;;;;;;8.00;5.00;;;;;;;;5058050;28;45359;-70
2022/10/01 11:30:53;;;;;;;;;1.33;0.33;;;;;;;;5058100;28;45327;-71
2022/10/01 11:33:43;;;;;;;;;3.33;1.33;;;;;;;;5057950;28;45340;-71
2022/10/01 11:36:13;;;;;;;;;41.67;33.67;;;;;;;;5054921;28;45342;-70
2022/10/01 11:38:54;;;;;;;;;5.67;2.33;;;;;;;;5057970;28;45876;-70
2022/10/01 11:41:30;;;;;;;;;3.00;1.33;;;;;;;;5058912;28;45425;-69
2022/10/01 11:43:58;;;;;;;;;5.67;5.33;;;;;;;;5061427;28;45410;-70
2022/10/01 11:46:33;;;;;;;;;4.67;2.67;;;;;;;;5061663;28;45580;-71
2022/10/01 11:49:02;;;;;;;;;2.67;1.67;;;;;;;;5061293;28;45547;-70
2022/10/01 11:51:45;;;;;;;;;1.33;1.33;;;;;;;;5061562;28;45410;-71
2022/10/01 11:54:12;;;;;;;;;6.00;1.67;;;;;;;;5061369;28;45541;-71
2022/10/01 11:59:48;;;;;;;;;2.33;2.33;;;;;;;;5048944;28;45323;-71
2022/10/01 12:02:31;;;;;;;;;3.25;0.50;;;;;;;;5059898;28;46435;-71
2022/10/01 12:05:06;;;;;;;;;2.33;2.00;;;;;;;;5061222;28;45342;-72
2022/10/01 12:07:37;;;;;;;;;4.25;1.75;;;;;;;;5061730;28;45367;-72
2022/10/01 12:10:02;;;;;;;;;4.33;2.00;;;;;;;;5061545;28;45225;-72
2022/10/01 12:12:32;;;;;;;;;4.00;1.25;;;;;;;;5061361;28;46269;-72
2022/10/01 12:15:02;;;;;;;;;5.00;4.00;;;;;;;;5060936;28;45557;-72
2022/10/01 12:17:48;;;;;;;;;6.00;3.00;;;;;;;;5060881;28;45225;-72
2022/10/01 12:20:26;;;;;;;;;3.00;1.50;;;;;;;;5059372;28;45894;-72
2022/10/01 12:22:52;;;;;;;;;1.00;0.50;;;;;;;;5060853;28;46698;-72
2022/10/01 12:25:22;;;;;;;;;5.25;2.25;;;;;;;;5058821;28;45449;-71
2022/10/01 12:27:52;;;;;;;;;1.75;1.00;;;;;;;;5060653;28;45165;-71
2022/10/01 12:30:19;;;;;;;;;4.75;1.00;;;;;;;;5060481;28;45435;-71
2022/10/01 12:33:03;;;;;;;;;2.75;0.75;;;;;;;;5060346;28;46085;-72
2022/10/01 12:35:35;;;;;;;;;1.25;1.25;;;;;;;;5060182;28;45382;-71
2022/10/01 12:38:00;;;;;;;;;0.25;0.25;;;;;;;;5060544;28;45478;-70
2022/10/01 12:40:29;;;;;;;;;2.00;0.75;;;;;;;;5058899;28;46271;-70
2022/10/01 12:43:04;;;;;;;;;2.00;2.00;;;;;;;;5059105;28;45561;-71
2022/10/01 12:45:35;;;;;;;;;1.00;1.00;;;;;;;;5060292;28;45170;-71
2022/10/01 12:48:15;;;;;;;;;1.75;1.00;;;;;;;;5060453;28;45252;-70
2022/10/01 12:50:52;;;;;;;;;2.75;1.75;;;;;;;;5058566;28;46020;-71
2022/10/01 12:53:24;;;;;;;;;0.50;0.50;;;;;;;;5057335;28;46302;-71
2022/10/01 12:55:58;;;;;;;;;1.75;1.00;;;;;;;;5060004;28;45352;-71
2022/10/01 12:58:43;;;;;;;;;1.75;1.75;;;;;;;;5060535;28;45483;-70
2022/10/01 13:01:08;;;;;;;;;3.25;0.75;;;;;;;;5059268;28;45432;-71
2022/10/01 13:03:51;;;;;;;;;3.00;1.75;;;;;;;;5060032;28;45420;-71
2022/10/01 13:06:25;;;;;;;;;1.50;1.00;;;;;;;;5058276;28;46035;-71
2022/10/01 13:09:16;;;;;;;;;1.75;0.75;;;;;;;;5060006;28;45260;-71
2022/10/01 13:11:51;;;;;;;;;2.00;1.75;;;;;;;;5058346;28;45740;-71
2022/10/01 13:14:16;;;;;;;;;1.25;1.25;;;;;;;;5057825;28;45418;-71
2022/10/01 13:16:43;;;;;;;;;3.25;1.00;;;;;;;;5058322;28;45308;-70
2022/10/01 13:19:13;;;;;;;;;2.00;1.00;;;;;;;;5060118;28;45241;-70
2022/10/01 13:21:38;;;;;;;;;1.00;0.75;;;;;;;;5059595;28;45360;-71
2022/10/01 13:24:25;;;;;;;;;2.75;0.75;;;;;;;;5058762;28;46353;-71
2022/10/01 13:26:51;;;;;;;;;0.25;0.25;;;;;;;;5059842;28;45275;-70
2022/10/01 13:29:29;;;;;;;;;3.00;1.75;;;;;;;;5060373;28;45345;-71
2022/10/01 13:31:56;;;;;;;;;1.75;0.25;;;;;;;;5060006;28;45299;-71
2022/10/01 13:34:33;;;;;;;;;2.00;2.00;;;;;;;;5059710;27;46212;-71
2022/10/01 13:37:08;;;;;;;;;5.50;5.50;;;;;;;;5060133;28;45307;-70
2022/10/01 13:39:33;;;;;;;;;3.00;1.75;;;;;;;;5060182;28;45315;-71
2022/10/01 13:41:58;;;;;;;;;4.00;1.00;;;;;;;;5092322;27;45343;-70
2022/10/01 13:44:31;;;;;;;;;1.00;1.00;;;;;;;;5059954;28;45281;-71
2022/10/01 13:47:08;;;;;;;;;0.50;0.50;;;;;;;;5059711;28;45444;-71
2022/10/01 13:49:35;;;;;;;;;6.67;1.00;;;;;;;;5059993;28;45362;-71
2022/10/01 13:52:01;;;;;;;;;3.00;0.00;;;;;;;;5059723;28;44713;-71
2022/10/01 13:54:36;;;;;;;;;7.00;1.00;;;;;;;;5092056;27;46818;-72
2022/10/01 13:57:08;;;;;;;;;3.25;2.25;;;;;;;;5059532;28;45185;-71
2022/10/01 13:59:36;;;;;;;;;2.25;1.75;;;;;;;;5060056;28;45283;-71
2022/10/01 14:02:02;;;;;;;;;2.25;1.50;;;;;;;;5058876;28;45233;-71
2022/10/01 14:04:38;;;;;;;;;2.00;1.00;;;;;;;;5059395;28;46521;-71
2022/10/01 14:07:13;;;;;;;;;3.75;2.50;;;;;;;;5059340;28;45334;-71
2022/10/01 14:09:44;;;;;;;;;6.25;1.25;;;;;;;;5058191;28;45230;-71
2022/10/01 14:17:56;;;;;;;;;4.00;1.00;;;;;;;;5059133;28;45342;-71
2022/10/01 14:20:24;;;;;;;;;1.00;1.00;;;;;;;;5059559;28;45307;-70
2022/10/01 14:23:06;;;;;;;;;2.75;0.75;;;;;;;;5059499;28;45285;-71
2022/10/01 14:25:31;;;;;;;;;2.00;0.75;;;;;;;;5058654;28;45493;-71
2022/10/01 14:28:06;;;;;;;;;2.00;0.50;;;;;;;;5058627;28;45463;-70
2022/10/01 14:30:50;;;;;;;;;2.25;1.00;;;;;;;;5055682;28;45490;-71
2022/10/01 14:33:40;;;;;;;;;4.50;0.00;;;;;;;;5057822;28;45354;-71
2022/10/01 14:36:08;;;;;;;;;1.50;0.75;;;;;;;;5055987;28;46026;-71
2022/10/01 14:38:33;;;;;;;;;2.50;0.75;;;;;;;;5058559;28;45411;-71
2022/10/01 14:40:58;;;;;;;;;0.25;0.25;;;;;;;;5058320;28;45474;-71
2022/10/01 14:43:25;;;;;;;;;0.00;0.00;;;;;;;;5058607;28;45217;-71
2022/10/01 14:45:50;;;;;;;;;3.00;1.50;;;;;;;;5058165;28;45506;-72
2022/10/01 14:48:15;;;;;;;;;1.25;0.00;;;;;;;;5058785;28;45406;-72
2022/10/01 14:50:45;;;;;;;;;1.00;1.00;;;;;;;;5059062;28;45296;-72
2022/10/01 14:53:14;;;;;;;;;2.75;0.75;;;;;;;;5074096;28;45984;-74
2022/10/01 14:55:39;;;;;;;;;4.75;1.50;;;;;;;;5058580;28;46140;-71
2022/10/01 14:58:05;;;;;;;;;5.00;2.00;;;;;;;;5058665;28;45329;-71
2022/10/01 15:00:32;;;;;;;;;1.50;0.25;;;;;;;;5058398;28;45300;-71
2022/10/01 15:03:06;;;;;;;;;1.75;0.75;;;;;;;;5058655;28;45764;-71
2022/10/01 15:05:32;;;;;;;;;0.50;0.50;;;;;;;;5058706;28;45352;-71